createdAt,value
2023-01-13T00:01:29.344Z,44.03
2023-01-13T00:03:57.817Z,52.20
2023-01-13T00:06:26.546Z,47.20
2023-01-13T00:08:54.539Z,47.13
2023-01-13T00:11:23.208Z,47.15
2023-01-13T00:13:51.124Z,45.92
2023-01-13T00:16:19.707Z,48.88
2023-01-13T00:18:48.513Z,53.72
2023-01-13T00:21:24.915Z,59.47
2023-01-13T00:23:54.214Z,53.72
2023-01-13T00:26:25.922Z,46.15
2023-01-13T00:28:58.761Z,50.22
2023-01-13T00:31:28.715Z,43.38
2023-01-13T00:33:58.648Z,45.22
2023-01-13T00:36:27.494Z,41.05
2023-01-13T00:38:55.328Z,47.78
2023-01-13T00:41:25.527Z,48.67
2023-01-13T00:43:53.560Z,41.28
2023-01-13T00:46:23.058Z,47.28
2023-01-13T00:48:51.699Z,44.63
2023-01-13T00:51:21.673Z,43.38
2023-01-13T00:53:51.729Z,42.25
2023-01-13T00:56:40.847Z,43.45
2023-01-13T00:59:12.946Z,40.95
2023-01-13T01:01:41.892Z,46.45
2023-01-13T01:04:09.540Z,45.10
2023-01-13T01:06:37.565Z,44.92
2023-01-13T01:09:05.983Z,47.40
2023-01-13T01:11:34.363Z,51.25
2023-01-13T01:14:03.866Z,53.17
2023-01-13T01:16:33.279Z,48.75
2023-01-13T01:19:02.013Z,43.75
2023-01-13T01:21:30.067Z,45.58
2023-01-13T01:24:04.201Z,51.67
2023-01-13T01:26:33.013Z,43.50
2023-01-13T01:29:02.331Z,39.45
2023-01-13T01:34:01.566Z,49.60
2023-01-13T01:36:30.366Z,45.65
2023-01-13T01:39:00.014Z,45.70
2023-01-13T01:41:32.599Z,42.00
2023-01-13T01:44:41.760Z,42.70
2023-01-13T01:47:18.125Z,47.80
2023-01-13T01:49:47.899Z,54.08
2023-01-13T01:52:26.609Z,54.53
2023-01-13T01:55:34.954Z,52.38
2023-01-13T01:58:15.756Z,56.88
2023-01-13T02:00:43.594Z,62.65
2023-01-13T02:03:11.767Z,55.55
2023-01-13T02:05:39.593Z,52.38
2023-01-13T02:08:11.426Z,53.28
2023-01-13T02:10:41.505Z,53.55
2023-01-13T02:13:12.313Z,54.33
2023-01-13T02:16:02.999Z,54.70
2023-01-13T02:19:00.390Z,54.25
2023-01-13T02:22:07.433Z,51.80
2023-01-13T02:25:05.556Z,52.10
2023-01-13T02:27:58.145Z,48.65
2023-01-13T02:31:28.966Z,47.58
2023-01-13T02:34:20.302Z,51.45
2023-01-13T02:36:51.124Z,55.38
2023-01-13T02:39:48.769Z,55.08
2023-01-13T02:42:53.136Z,54.05
2023-01-13T02:45:43.196Z,52.58
2023-01-13T02:48:14.032Z,57.13
2023-01-13T02:51:12.315Z,62.97
2023-01-13T02:54:06.814Z,52.72
2023-01-13T02:56:41.198Z,52.05
2023-01-13T02:59:10.537Z,53.55
2023-01-13T03:01:38.495Z,50.03
2023-01-13T03:04:51.712Z,55.80
2023-01-13T03:07:57.105Z,51.85
2023-01-13T03:10:49.214Z,46.38
2023-01-13T03:14:05.678Z,49.08
2023-01-13T03:17:11.267Z,53.33
2023-01-13T03:20:08.799Z,51.17
2023-01-13T03:23:30.076Z,61.80
2023-01-13T03:26:31.137Z,50.10
2023-01-13T03:29:13.697Z,46.78
2023-01-13T03:32:02.956Z,54.58
2023-01-13T03:34:39.831Z,46.05
2023-01-13T03:37:09.537Z,44.17
2023-01-13T03:39:43.645Z,48.40
2023-01-13T03:42:25.268Z,43.45
2023-01-13T03:45:06.631Z,46.42
2023-01-13T03:47:47.000Z,43.63
2023-01-13T03:50:20.699Z,53.50
2023-01-13T03:53:00.737Z,50.95
2023-01-13T03:55:38.019Z,47.38
2023-01-13T03:58:20.423Z,47.80
2023-01-13T04:01:18.952Z,56.50
2023-01-13T04:04:06.550Z,55.10
2023-01-13T04:07:12.944Z,61.17
2023-01-13T04:10:02.730Z,59.58
2023-01-13T04:13:00.887Z,55.85
2023-01-13T04:15:44.138Z,48.20
2023-01-13T04:18:27.844Z,54.40
2023-01-13T04:20:59.413Z,50.53
2023-01-13T04:23:28.232Z,52.25
2023-01-13T04:25:56.626Z,51.70
2023-01-13T04:28:25.837Z,50.90
2023-01-13T04:30:53.756Z,50.22
2023-01-13T04:33:21.822Z,47.35
2023-01-13T04:35:49.526Z,46.22
2023-01-13T04:38:20.691Z,47.55
2023-01-13T04:40:49.194Z,52.28
2023-01-13T04:43:17.562Z,63.55
2023-01-13T04:45:45.268Z,53.80
2023-01-13T04:48:13.347Z,53.28
2023-01-13T04:50:41.854Z,55.20
2023-01-13T04:53:09.907Z,53.80
2023-01-13T04:55:37.430Z,57.97
2023-01-13T04:58:08.560Z,49.03
2023-01-13T05:00:36.719Z,55.65
2023-01-13T05:03:05.039Z,52.55
2023-01-13T05:05:32.868Z,60.33
2023-01-13T05:08:00.763Z,57.30
2023-01-13T05:10:28.764Z,61.55
2023-01-13T05:13:15.533Z,53.80
2023-01-13T05:16:02.692Z,63.83
2023-01-13T05:18:31.600Z,61.28
2023-01-13T05:20:59.204Z,55.05
2023-01-13T05:23:46.185Z,51.03
2023-01-13T05:26:13.853Z,48.85
2023-01-13T05:28:41.616Z,54.83
2023-01-13T05:31:09.154Z,51.55
2023-01-13T05:33:36.993Z,54.30
2023-01-13T05:36:05.854Z,44.90
2023-01-13T05:38:33.672Z,43.63
2023-01-13T05:41:20.095Z,50.25
2023-01-13T05:43:47.876Z,54.20
2023-01-13T05:46:17.788Z,56.58
2023-01-13T05:48:46.020Z,56.55
2023-01-13T05:51:13.924Z,60.38
2023-01-13T05:53:42.071Z,61.42
2023-01-13T05:56:11.260Z,58.53
2023-01-13T05:58:39.167Z,53.95
2023-01-13T06:01:10.807Z,53.60
2023-01-13T06:03:38.938Z,49.30
2023-01-13T06:06:09.078Z,53.65
2023-01-13T06:08:39.566Z,47.67
2023-01-13T06:11:07.879Z,44.67
2023-01-13T06:13:35.762Z,49.58
2023-01-13T06:16:03.529Z,51.75
2023-01-13T06:18:31.396Z,48.70
2023-01-13T06:20:58.968Z,51.45
2023-01-13T06:23:27.262Z,53.53
2023-01-13T06:26:36.247Z,42.47
2023-01-13T06:29:04.679Z,50.10
2023-01-13T06:31:37.155Z,45.00
2023-01-13T06:34:11.663Z,38.72
2023-01-13T06:36:48.968Z,48.33
2023-01-13T06:39:22.102Z,48.80
2023-01-13T06:42:11.092Z,47.05
2023-01-13T06:44:39.325Z,46.63
2023-01-13T06:47:07.313Z,57.50
2023-01-13T06:49:35.327Z,52.22
2023-01-13T06:52:03.229Z,45.88
2023-01-13T06:54:31.269Z,48.55
2023-01-13T06:56:58.908Z,47.03
2023-01-13T06:59:27.092Z,50.08
2023-01-13T07:01:54.864Z,58.10
2023-01-13T07:04:22.976Z,32.20
2023-01-13T07:06:50.595Z,44.53
2023-01-13T07:09:18.696Z,44.67
2023-01-13T07:11:46.834Z,47.47
2023-01-13T07:14:33.502Z,37.67
2023-01-13T07:17:01.326Z,30.08
2023-01-13T07:19:29.335Z,27.08
2023-01-13T07:21:56.985Z,36.45
2023-01-13T07:24:25.169Z,43.50
2023-01-13T07:26:52.979Z,31.23
2023-01-13T07:29:21.046Z,30.08
2023-01-13T07:31:50.075Z,34.38
2023-01-13T07:34:18.383Z,29.75
2023-01-13T07:36:46.081Z,27.85
2023-01-13T07:39:14.308Z,27.63
2023-01-13T07:42:00.622Z,28.83
2023-01-13T07:44:28.466Z,32.50
2023-01-13T07:46:56.248Z,26.88
2023-01-13T07:49:24.453Z,24.15
2023-01-13T07:51:52.010Z,28.63
2023-01-13T07:54:25.512Z,26.52
2023-01-13T07:56:59.280Z,18.42
2023-01-13T07:59:27.163Z,21.10
2023-01-13T08:01:54.953Z,20.70
2023-01-13T08:04:23.066Z,16.23
2023-01-13T08:07:09.699Z,11.70
2023-01-13T08:09:37.693Z,11.13
2023-01-13T08:12:23.961Z,11.45
2023-01-13T08:14:54.085Z,18.77
2023-01-13T08:17:21.574Z,14.73
2023-01-13T08:19:49.507Z,14.48
2023-01-13T08:22:17.186Z,14.68
2023-01-13T08:24:45.139Z,17.63
2023-01-13T08:27:12.849Z,15.00
2023-01-13T08:29:41.048Z,13.05
2023-01-13T08:32:08.725Z,20.73
2023-01-13T08:34:37.201Z,22.85
2023-01-13T08:37:04.769Z,19.75
2023-01-13T08:39:32.773Z,18.70
2023-01-13T08:42:00.433Z,20.92
2023-01-13T08:44:31.063Z,22.60
2023-01-13T08:46:59.933Z,20.83
2023-01-13T08:49:28.026Z,27.27
2023-01-13T08:51:55.787Z,26.67
2023-01-13T08:54:24.062Z,36.38
2023-01-13T08:56:51.980Z,26.75
2023-01-13T08:59:20.936Z,31.98
2023-01-13T09:01:48.641Z,34.60
2023-01-13T09:04:24.423Z,41.33
2023-01-13T09:06:52.152Z,42.85
2023-01-13T09:09:21.281Z,34.47
2023-01-13T09:12:09.950Z,30.27
2023-01-13T09:14:40.061Z,22.90
2023-01-13T09:17:08.553Z,22.95
2023-01-13T09:19:37.362Z,26.27
2023-01-13T09:22:05.236Z,21.57
2023-01-13T09:24:33.179Z,11.52
2023-01-13T09:27:00.722Z,10.48
2023-01-13T09:29:28.889Z,15.20
2023-01-13T09:31:58.271Z,13.23
2023-01-13T09:34:44.833Z,13.93
2023-01-13T09:37:12.552Z,18.58
2023-01-13T09:39:40.690Z,13.93
2023-01-13T09:42:58.967Z,13.30
2023-01-13T09:45:43.908Z,17.95
2023-01-13T09:48:51.973Z,20.20
2023-01-13T09:51:41.000Z,18.17
2023-01-13T09:54:32.120Z,17.77
2023-01-13T09:57:01.072Z,20.08
2023-01-13T09:59:36.412Z,16.87
2023-01-13T10:02:29.899Z,20.25
2023-01-13T10:05:32.318Z,22.58
2023-01-13T10:08:24.477Z,20.45
2023-01-13T10:11:00.231Z,24.05
2023-01-13T10:13:31.151Z,25.52
2023-01-13T10:16:36.811Z,24.75
2023-01-13T10:19:39.017Z,27.85
2023-01-13T10:22:38.942Z,26.38
2023-01-13T10:25:45.416Z,24.95
2023-01-13T10:28:19.461Z,30.27
2023-01-13T10:30:48.208Z,30.58
2023-01-13T10:33:29.990Z,35.85
2023-01-13T10:36:23.203Z,31.95
2023-01-13T10:38:51.956Z,28.20
2023-01-13T10:41:27.391Z,29.80
2023-01-13T10:44:09.373Z,27.38
2023-01-13T10:46:55.599Z,27.70
2023-01-13T10:49:32.745Z,31.80
2023-01-13T10:52:02.886Z,28.00
2023-01-13T10:54:31.284Z,32.65
2023-01-13T10:57:20.836Z,30.55
2023-01-13T10:59:49.284Z,27.65
2023-01-13T11:02:25.184Z,25.88
2023-01-13T11:04:53.932Z,31.90
2023-01-13T11:07:30.162Z,28.80
2023-01-13T11:10:09.553Z,27.45
2023-01-13T11:12:53.875Z,28.38
2023-01-13T11:15:28.806Z,26.75
2023-01-13T11:18:05.275Z,30.42
2023-01-13T11:20:42.530Z,34.00
2023-01-13T11:23:22.008Z,28.50
2023-01-13T11:25:58.004Z,25.73
2023-01-13T11:28:47.560Z,26.02
2023-01-13T11:31:33.973Z,28.65
2023-01-13T11:34:32.510Z,27.38
2023-01-13T11:37:03.221Z,29.52
2023-01-13T11:40:17.159Z,28.30
2023-01-13T11:42:58.428Z,23.67
2023-01-13T11:45:41.467Z,25.88
2023-01-13T11:48:17.882Z,29.15
2023-01-13T11:51:14.461Z,27.05
2023-01-13T11:54:14.594Z,28.45
2023-01-13T11:57:55.286Z,25.92
2023-01-13T12:00:53.948Z,26.52
2023-01-13T12:03:36.250Z,20.05
2023-01-13T12:06:34.622Z,21.10
2023-01-13T12:09:11.929Z,30.48
2023-01-13T12:12:22.452Z,20.75
2023-01-13T12:15:22.953Z,25.33
2023-01-13T12:18:12.889Z,20.65
2023-01-13T12:21:15.707Z,26.23
2023-01-13T12:24:41.593Z,26.75
2023-01-13T12:27:52.521Z,20.35
2023-01-13T12:30:28.754Z,17.95
2023-01-13T12:33:13.581Z,19.90
2023-01-13T12:35:58.209Z,23.50
2023-01-13T12:38:42.379Z,19.70
2023-01-13T12:41:33.574Z,25.55
2023-01-13T12:44:17.158Z,23.48
2023-01-13T12:46:56.860Z,18.58
2023-01-13T12:49:35.120Z,32.08
2023-01-13T12:52:15.681Z,33.83
2023-01-13T12:54:44.272Z,34.45
2023-01-13T12:57:24.977Z,35.92
2023-01-13T13:00:04.861Z,42.63
2023-01-13T13:02:36.831Z,46.55
2023-01-13T13:05:23.222Z,45.53
2023-01-13T13:08:12.783Z,38.03
2023-01-13T13:11:32.610Z,36.22
2023-01-13T13:14:03.793Z,52.33
2023-01-13T13:16:31.929Z,49.90
2023-01-13T13:19:21.283Z,60.05
2023-01-13T13:22:14.148Z,47.15
2023-01-13T13:25:03.536Z,40.30
2023-01-13T13:28:08.575Z,48.28
2023-01-13T13:30:42.740Z,40.22
2023-01-13T13:33:53.406Z,44.53
2023-01-13T13:37:04.853Z,43.95
2023-01-13T13:39:52.528Z,42.80
2023-01-13T13:42:48.349Z,48.15
2023-01-13T13:45:43.684Z,47.65
2023-01-13T13:48:31.122Z,40.20
2023-01-13T13:51:21.888Z,51.22
2023-01-13T13:53:49.838Z,40.13
2023-01-13T13:56:23.217Z,41.88
2023-01-13T13:58:52.376Z,46.60
2023-01-13T14:01:43.618Z,42.88
2023-01-13T14:04:23.069Z,49.63
2023-01-13T14:06:56.082Z,49.75
2023-01-13T14:09:25.907Z,45.97
2023-01-13T14:12:03.787Z,45.17
2023-01-13T14:14:31.356Z,54.38
2023-01-13T14:16:59.463Z,62.28
2023-01-13T14:19:35.235Z,54.65
2023-01-13T14:22:06.832Z,55.58
2023-01-13T14:24:44.802Z,54.40
2023-01-13T14:27:19.616Z,54.45
2023-01-13T14:29:47.690Z,45.70
2023-01-13T14:32:20.032Z,58.15
2023-01-13T14:34:48.034Z,56.75
2023-01-13T14:37:31.550Z,49.50
2023-01-13T14:39:59.410Z,52.25
2023-01-13T14:42:29.709Z,45.58
2023-01-13T14:44:57.659Z,61.00
2023-01-13T14:47:34.112Z,54.15
2023-01-13T14:50:11.048Z,51.83
2023-01-13T14:52:57.219Z,42.13
2023-01-13T14:55:41.421Z,43.55
2023-01-13T14:58:28.608Z,55.38
2023-01-13T15:01:39.595Z,51.63
2023-01-13T15:04:31.852Z,51.63
2023-01-13T15:07:01.320Z,48.60
2023-01-13T15:09:41.644Z,51.08
2023-01-13T15:12:35.729Z,49.80
2023-01-13T15:15:19.891Z,49.67
2023-01-13T15:17:47.574Z,40.63
2023-01-13T15:20:19.250Z,47.58
2023-01-13T15:22:48.073Z,50.80
2023-01-13T15:25:16.306Z,42.65
2023-01-13T15:27:46.196Z,41.83
2023-01-13T15:30:26.350Z,45.70
2023-01-13T15:32:58.415Z,44.55
2023-01-13T15:35:29.709Z,41.15
2023-01-13T15:37:58.167Z,40.72
2023-01-13T15:40:32.380Z,49.25
2023-01-13T15:43:18.580Z,54.05
2023-01-13T15:46:05.676Z,51.15
2023-01-13T15:48:33.696Z,55.17
2023-01-13T15:51:04.820Z,49.88
2023-01-13T15:53:36.890Z,48.65
2023-01-13T15:56:15.391Z,51.42
2023-01-13T15:58:43.019Z,52.90
2023-01-13T16:01:13.197Z,57.75
2023-01-13T16:03:40.767Z,44.60
2023-01-13T16:06:18.658Z,51.00
2023-01-13T16:08:46.608Z,56.30
2023-01-13T16:11:14.511Z,47.63
2023-01-13T16:13:42.116Z,55.30
2023-01-13T16:16:27.679Z,52.13
2023-01-13T16:18:55.652Z,50.78
2023-01-13T16:21:23.890Z,55.72
2023-01-13T16:23:52.096Z,54.20
2023-01-13T16:26:36.207Z,49.97
2023-01-13T16:29:04.623Z,49.97
2023-01-13T16:31:34.400Z,48.70
2023-01-13T16:36:35.440Z,67.10
2023-01-13T16:39:04.789Z,54.13
2023-01-13T16:41:34.529Z,47.05
2023-01-13T16:44:06.152Z,70.57
2023-01-13T16:46:34.251Z,52.15
2023-01-13T16:49:06.851Z,61.58
2023-01-13T16:51:34.952Z,53.42
2023-01-13T16:54:05.306Z,57.30
2023-01-13T16:56:36.445Z,54.45
2023-01-13T16:59:14.191Z,53.30
2023-01-13T17:01:44.993Z,57.20
2023-01-13T17:04:18.449Z,43.75
2023-01-13T17:07:03.771Z,42.72
2023-01-13T17:09:31.631Z,41.90
2023-01-13T17:12:00.347Z,51.55
2023-01-13T17:14:27.890Z,52.60
2023-01-13T17:16:58.153Z,47.85
2023-01-13T17:19:26.147Z,43.97
2023-01-13T17:21:54.042Z,45.63
2023-01-13T17:24:21.866Z,40.83
2023-01-13T17:26:51.434Z,46.15
2023-01-13T17:29:25.845Z,41.42
2023-01-13T17:31:54.108Z,42.25
2023-01-13T17:34:22.485Z,38.53
2023-01-13T17:36:50.644Z,36.80
2023-01-13T17:39:25.245Z,36.90
2023-01-13T17:41:55.969Z,37.53
2023-01-13T17:44:23.743Z,38.78
2023-01-13T17:46:51.846Z,37.13
2023-01-13T17:49:21.869Z,39.47
2023-01-13T17:51:51.500Z,39.67
2023-01-13T17:54:19.962Z,37.20
2023-01-13T17:56:48.232Z,40.10
2023-01-13T17:59:19.431Z,47.78
2023-01-13T18:01:47.357Z,45.10
2023-01-13T18:04:24.505Z,46.75
2023-01-13T18:06:53.390Z,44.03
2023-01-13T18:09:21.799Z,42.03
2023-01-13T18:11:50.424Z,44.40
2023-01-13T18:14:19.037Z,38.00
2023-01-13T18:16:46.909Z,42.35
2023-01-13T18:19:35.083Z,34.45
2023-01-13T18:22:21.668Z,41.20
2023-01-13T18:25:07.856Z,35.63
2023-01-13T18:27:38.884Z,36.85
2023-01-13T18:30:07.349Z,36.55
2023-01-13T18:32:35.853Z,37.47
2023-01-13T18:35:10.308Z,37.08
2023-01-13T18:37:41.963Z,34.58
2023-01-13T18:40:13.454Z,32.00
2023-01-13T18:42:59.113Z,36.38
2023-01-13T18:45:31.156Z,36.35
2023-01-13T18:48:03.601Z,35.63
2023-01-13T18:50:34.624Z,38.13
2023-01-13T18:53:02.606Z,41.08
2023-01-13T18:55:30.221Z,33.38
2023-01-13T18:57:58.971Z,40.75
2023-01-13T19:00:27.469Z,37.63
2023-01-13T19:05:35.066Z,38.97
2023-01-13T19:08:03.791Z,38.33
2023-01-13T19:10:32.718Z,33.42
2023-01-13T19:15:29.937Z,41.45
2023-01-13T19:17:57.914Z,43.60
2023-01-13T19:20:25.505Z,40.45
2023-01-13T19:22:56.481Z,38.35
2023-01-13T19:25:24.784Z,36.58
2023-01-13T19:27:52.715Z,36.00
2023-01-13T19:30:20.496Z,28.73
2023-01-13T19:32:48.345Z,27.10
2023-01-13T19:35:18.185Z,27.70
2023-01-13T19:37:46.219Z,25.35
2023-01-13T19:40:13.937Z,30.90
2023-01-13T19:43:03.039Z,29.95
2023-01-13T19:45:33.877Z,32.78
2023-01-13T19:48:04.597Z,28.63
2023-01-13T19:50:36.753Z,26.63
2023-01-13T19:53:05.622Z,29.55
2023-01-13T19:55:33.583Z,27.83
2023-01-13T19:58:02.030Z,26.83
2023-01-13T20:00:29.716Z,23.48
2023-01-13T20:03:03.212Z,30.33
2023-01-13T20:05:30.977Z,26.70
2023-01-13T20:07:58.905Z,30.13
2023-01-13T20:10:26.544Z,29.85
2023-01-13T20:12:54.679Z,30.50
2023-01-13T20:15:22.325Z,26.10
2023-01-13T20:17:50.611Z,27.38
2023-01-13T20:20:20.570Z,22.38
2023-01-13T20:22:49.737Z,29.33
2023-01-13T20:25:18.753Z,24.02
2023-01-13T20:30:15.800Z,23.40
2023-01-13T20:32:44.761Z,26.05
2023-01-13T20:35:12.418Z,23.60
2023-01-13T20:37:42.267Z,24.88
2023-01-13T20:42:45.402Z,29.67
2023-01-13T20:45:18.116Z,30.98
2023-01-13T20:47:47.385Z,29.50
2023-01-13T20:50:16.733Z,27.38
2023-01-13T20:52:46.025Z,28.25
2023-01-13T20:55:15.133Z,29.08
2023-01-13T21:00:12.026Z,24.42
2023-01-13T21:02:41.936Z,23.30
2023-01-13T21:05:10.239Z,29.53
2023-01-13T21:07:38.445Z,27.05
2023-01-13T21:10:06.702Z,29.58
2023-01-13T21:12:53.431Z,29.35
2023-01-13T21:15:22.785Z,29.60
2023-01-13T21:18:10.596Z,24.25
2023-01-13T21:20:39.553Z,25.05
2023-01-13T21:23:08.559Z,24.83
2023-01-13T21:25:39.559Z,28.33
2023-01-13T21:28:11.547Z,28.40
2023-01-13T21:30:40.077Z,30.25
2023-01-13T21:33:11.180Z,31.90
2023-01-13T21:35:39.692Z,25.67
2023-01-13T21:38:07.881Z,27.73
2023-01-13T21:40:36.040Z,28.88
2023-01-13T21:43:22.789Z,26.55
2023-01-13T21:46:09.232Z,26.10
2023-01-13T21:48:37.320Z,28.90
2023-01-13T21:51:05.158Z,27.38
2023-01-13T21:53:35.799Z,25.17
2023-01-13T21:56:19.721Z,27.38
2023-01-13T21:58:47.702Z,23.23
2023-01-13T22:01:29.364Z,26.92
2023-01-13T22:04:23.762Z,26.80
2023-01-13T22:07:19.217Z,21.80
2023-01-13T22:09:49.523Z,23.88
2023-01-13T22:12:22.732Z,20.70
2023-01-13T22:14:56.233Z,30.27
2023-01-13T22:17:31.235Z,25.90
2023-01-13T22:20:01.344Z,26.08
2023-01-13T22:24:58.246Z,20.45
2023-01-13T22:27:29.085Z,25.30
2023-01-13T22:29:59.066Z,27.48
2023-01-13T22:32:27.716Z,24.92
2023-01-13T22:34:57.957Z,23.05
2023-01-13T22:37:27.111Z,22.45
2023-01-13T22:39:57.040Z,29.05
2023-01-13T22:42:28.189Z,22.70
2023-01-13T22:44:57.471Z,20.67
2023-01-13T22:47:27.871Z,21.33
2023-01-13T22:49:58.262Z,20.83
2023-01-13T22:52:28.533Z,24.80
2023-01-13T22:54:57.424Z,20.77
2023-01-13T22:57:25.125Z,23.55
2023-01-13T22:59:53.354Z,22.17
2023-01-13T23:02:20.939Z,22.48
2023-01-13T23:04:49.281Z,29.58
2023-01-13T23:07:17.069Z,33.63
2023-01-13T23:09:46.301Z,33.13
2023-01-13T23:12:14.153Z,26.30
2023-01-13T23:14:42.123Z,25.10
2023-01-13T23:17:10.232Z,25.25
2023-01-13T23:19:38.189Z,25.30
2023-01-13T23:22:06.437Z,29.77
2023-01-13T23:24:34.405Z,25.45
2023-01-13T23:27:02.056Z,20.33
2023-01-13T23:29:29.963Z,23.13
2023-01-13T23:31:57.845Z,24.13
2023-01-13T23:34:25.853Z,22.50
2023-01-13T23:36:53.537Z,25.80
2023-01-13T23:39:21.594Z,22.60
2023-01-13T23:41:49.161Z,24.73
2023-01-13T23:44:17.086Z,20.05
2023-01-13T23:46:44.562Z,25.92
2023-01-13T23:49:12.518Z,22.83
2023-01-13T23:51:40.248Z,23.45
2023-01-13T23:54:08.258Z,25.20
2023-01-13T23:56:39.425Z,22.77
2023-01-13T23:59:08.065Z,25.65
